sensor_id;sensor_type;location;lat;lon;timestamp;P1;durP1;ratioP1;P2;durP2;ratioP2
8048;SDS011;20935;42.660;23.342;2022-09-09T00:06:50;15.93;;;12.90;;
8048;SDS011;20935;42.660;23.342;2022-09-09T00:09:21;15.00;;;13.33;;
8048;SDS011;20935;42.660;23.342;2022-09-09T00:12:02;18.40;;;13.33;;
8048;SDS011;20935;42.660;23.342;2022-09-09T00:14:42;14.47;;;13.10;;
8048;SDS011;20935;42.660;23.342;2022-09-09T00:17:14;14.17;;;12.63;;
8048;SDS011;20935;42.660;23.342;2022-09-09T00:22:21;13.90;;;12.60;;
8048;SDS011;20935;42.660;23.342;2022-09-09T00:24:52;15.17;;;13.43;;
8048;SDS011;20935;42.660;23.342;2022-09-09T00:32:27;16.53;;;13.47;;
8048;SDS011;20935;42.660;23.342;2022-09-09T00:37:43;14.20;;;12.80;;
8048;SDS011;20935;42.660;23.342;2022-09-09T00:43:04;15.23;;;13.43;;
8048;SDS011;20935;42.660;23.342;2022-09-09T00:45:37;15.43;;;13.00;;
8048;SDS011;20935;42.660;23.342;2022-09-09T00:48:09;14.93;;;13.53;;
8048;SDS011;20935;42.660;23.342;2022-09-09T00:50:49;13.97;;;12.47;;
8048;SDS011;20935;42.660;23.342;2022-09-09T00:58:26;15.37;;;13.87;;
8048;SDS011;20935;42.660;23.342;2022-09-09T01:01:04;14.73;;;13.20;;
8048;SDS011;20935;42.660;23.342;2022-09-09T01:10:58;14.00;;;12.70;;
8048;SDS011;20935;42.660;23.342;2022-09-09T01:13:25;15.00;;;13.60;;
8048;SDS011;20935;42.660;23.342;2022-09-09T01:15:51;20.50;;;13.80;;
8048;SDS011;20935;42.660;23.342;2022-09-09T01:18:19;15.10;;;13.60;;
8048;SDS011;20935;42.660;23.342;2022-09-09T01:23:22;15.57;;;13.97;;
8048;SDS011;20935;42.660;23.342;2022-09-09T01:28:37;15.27;;;13.73;;
8048;SDS011;20935;42.660;23.342;2022-09-09T01:31:04;14.73;;;13.23;;
8048;SDS011;20935;42.660;23.342;2022-09-09T01:33:31;15.30;;;13.80;;
8048;SDS011;20935;42.660;23.342;2022-09-09T01:36:19;14.00;;;12.60;;
8048;SDS011;20935;42.660;23.342;2022-09-09T01:38:41;14.83;;;13.43;;
8048;SDS011;20935;42.660;23.342;2022-09-09T01:41:07;16.40;;;13.80;;
8048;SDS011;20935;42.660;23.342;2022-09-09T01:43:32;15.13;;;13.20;;
8048;SDS011;20935;42.660;23.342;2022-09-09T01:45:59;16.17;;;14.57;;
8048;SDS011;20935;42.660;23.342;2022-09-09T01:48:25;15.13;;;13.63;;
8048;SDS011;20935;42.660;23.342;2022-09-09T01:50:54;14.80;;;13.40;;
8048;SDS011;20935;42.660;23.342;2022-09-09T01:53:20;17.43;;;14.07;;
8048;SDS011;20935;42.660;23.342;2022-09-09T01:55:55;15.77;;;14.03;;
8048;SDS011;20935;42.660;23.342;2022-09-09T01:58:34;14.90;;;13.43;;
8048;SDS011;20935;42.660;23.342;2022-09-09T02:01:05;15.23;;;13.83;;
8048;SDS011;20935;42.660;23.342;2022-09-09T02:03:32;16.97;;;14.63;;
8048;SDS011;20935;42.660;23.342;2022-09-09T02:08:36;15.50;;;14.00;;
8048;SDS011;20935;42.660;23.342;2022-09-09T02:13:30;19.83;;;15.87;;
8048;SDS011;20935;42.660;23.342;2022-09-09T02:16:00;16.43;;;14.73;;
8048;SDS011;20935;42.660;23.342;2022-09-09T02:18:31;16.37;;;14.77;;
8048;SDS011;20935;42.660;23.342;2022-09-09T02:20:57;16.50;;;14.87;;
8048;SDS011;20935;42.660;23.342;2022-09-09T02:23:26;16.77;;;15.10;;
8048;SDS011;20935;42.660;23.342;2022-09-09T02:25:53;16.13;;;14.67;;
8048;SDS011;20935;42.660;23.342;2022-09-09T02:28:20;15.40;;;13.93;;
8048;SDS011;20935;42.660;23.342;2022-09-09T02:30:46;16.30;;;14.37;;
8048;SDS011;20935;42.660;23.342;2022-09-09T02:33:14;15.77;;;14.37;;
8048;SDS011;20935;42.660;23.342;2022-09-09T02:35:39;15.87;;;13.83;;
8048;SDS011;20935;42.660;23.342;2022-09-09T02:38:07;15.67;;;14.13;;
8048;SDS011;20935;42.660;23.342;2022-09-09T02:40:33;15.93;;;14.43;;
8048;SDS011;20935;42.660;23.342;2022-09-09T02:42:58;16.77;;;13.73;;
8048;SDS011;20935;42.660;23.342;2022-09-09T02:45:26;16.77;;;15.17;;
8048;SDS011;20935;42.660;23.342;2022-09-09T02:48:03;15.87;;;13.73;;
8048;SDS011;20935;42.660;23.342;2022-09-09T02:50:33;15.73;;;14.23;;
8048;SDS011;20935;42.660;23.342;2022-09-09T02:53:16;16.30;;;14.50;;
8048;SDS011;20935;42.660;23.342;2022-09-09T02:58:08;15.40;;;13.90;;
8048;SDS011;20935;42.660;23.342;2022-09-09T03:00:36;14.67;;;13.20;;
8048;SDS011;20935;42.660;23.342;2022-09-09T03:03:02;15.20;;;13.80;;
8048;SDS011;20935;42.660;23.342;2022-09-09T03:05:28;15.37;;;13.90;;
8048;SDS011;20935;42.660;23.342;2022-09-09T03:07:53;14.43;;;13.00;;
8048;SDS011;20935;42.660;23.342;2022-09-09T03:10:18;16.10;;;14.40;;
8048;SDS011;20935;42.660;23.342;2022-09-09T03:12:44;17.20;;;14.40;;
8048;SDS011;20935;42.660;23.342;2022-09-09T03:15:09;15.00;;;13.47;;
8048;SDS011;20935;42.660;23.342;2022-09-09T03:17:35;15.47;;;13.90;;
8048;SDS011;20935;42.660;23.342;2022-09-09T03:20:01;17.97;;;14.67;;
8048;SDS011;20935;42.660;23.342;2022-09-09T03:22:27;18.63;;;14.87;;
8048;SDS011;20935;42.660;23.342;2022-09-09T03:24:52;16.23;;;14.60;;
8048;SDS011;20935;42.660;23.342;2022-09-09T03:27:17;16.77;;;15.07;;
8048;SDS011;20935;42.660;23.342;2022-09-09T03:29:44;15.77;;;14.30;;
8048;SDS011;20935;42.660;23.342;2022-09-09T03:32:13;20.17;;;16.30;;
8048;SDS011;20935;42.660;23.342;2022-09-09T03:34:38;17.20;;;15.40;;
8048;SDS011;20935;42.660;23.342;2022-09-09T03:37:07;16.43;;;14.17;;
8048;SDS011;20935;42.660;23.342;2022-09-09T03:39:32;15.23;;;13.23;;
8048;SDS011;20935;42.660;23.342;2022-09-09T03:41:57;16.90;;;15.20;;
8048;SDS011;20935;42.660;23.342;2022-09-09T03:44:23;15.57;;;13.97;;
8048;SDS011;20935;42.660;23.342;2022-09-09T03:46:48;18.30;;;14.17;;
8048;SDS011;20935;42.660;23.342;2022-09-09T03:49:13;15.83;;;14.20;;
8048;SDS011;20935;42.660;23.342;2022-09-09T03:51:38;18.23;;;15.23;;
8048;SDS011;20935;42.660;23.342;2022-09-09T03:54:05;15.93;;;14.07;;
8048;SDS011;20935;42.660;23.342;2022-09-09T03:56:33;16.43;;;14.67;;
8048;SDS011;20935;42.660;23.342;2022-09-09T03:58:58;16.87;;;14.50;;
8048;SDS011;20935;42.660;23.342;2022-09-09T04:01:23;15.90;;;14.30;;
8048;SDS011;20935;42.660;23.342;2022-09-09T04:03:49;15.93;;;14.53;;
8048;SDS011;20935;42.660;23.342;2022-09-09T04:06:15;16.27;;;14.43;;
8048;SDS011;20935;42.660;23.342;2022-09-09T04:08:41;15.77;;;14.27;;
8048;SDS011;20935;42.660;23.342;2022-09-09T04:11:07;17.73;;;14.90;;
8048;SDS011;20935;42.660;23.342;2022-09-09T04:13:36;16.57;;;14.97;;
8048;SDS011;20935;42.660;23.342;2022-09-09T04:16:03;18.50;;;15.50;;
8048;SDS011;20935;42.660;23.342;2022-09-09T04:18:28;17.03;;;15.47;;
8048;SDS011;20935;42.660;23.342;2022-09-09T04:20:54;16.70;;;14.93;;
8048;SDS011;20935;42.660;23.342;2022-09-09T04:23:22;16.50;;;14.80;;
8048;SDS011;20935;42.660;23.342;2022-09-09T04:25:51;15.87;;;14.20;;
8048;SDS011;20935;42.660;23.342;2022-09-09T04:28:17;17.87;;;15.33;;
8048;SDS011;20935;42.660;23.342;2022-09-09T04:30:43;17.07;;;14.77;;
8048;SDS011;20935;42.660;23.342;2022-09-09T04:33:08;17.67;;;15.33;;
8048;SDS011;20935;42.660;23.342;2022-09-09T04:35:35;17.03;;;15.33;;
8048;SDS011;20935;42.660;23.342;2022-09-09T04:38:00;16.70;;;15.00;;
8048;SDS011;20935;42.660;23.342;2022-09-09T04:40:27;17.17;;;15.47;;
8048;SDS011;20935;42.660;23.342;2022-09-09T04:42:53;17.40;;;15.43;;
8048;SDS011;20935;42.660;23.342;2022-09-09T04:45:18;16.47;;;14.87;;
8048;SDS011;20935;42.660;23.342;2022-09-09T04:47:43;15.87;;;13.93;;
8048;SDS011;20935;42.660;23.342;2022-09-09T04:50:09;16.60;;;14.77;;
8048;SDS011;20935;42.660;23.342;2022-09-09T04:52:35;15.50;;;13.90;;
8048;SDS011;20935;42.660;23.342;2022-09-09T04:55:00;16.13;;;14.43;;
8048;SDS011;20935;42.660;23.342;2022-09-09T04:57:26;20.10;;;15.90;;
8048;SDS011;20935;42.660;23.342;2022-09-09T04:59:51;18.20;;;15.50;;
8048;SDS011;20935;42.660;23.342;2022-09-09T05:02:16;18.10;;;16.20;;
8048;SDS011;20935;42.660;23.342;2022-09-09T05:04:42;18.00;;;15.07;;
8048;SDS011;20935;42.660;23.342;2022-09-09T05:07:07;15.73;;;13.07;;
8048;SDS011;20935;42.660;23.342;2022-09-09T05:09:33;15.43;;;13.63;;
8048;SDS011;20935;42.660;23.342;2022-09-09T05:11:58;18.17;;;14.87;;
8048;SDS011;20935;42.660;23.342;2022-09-09T05:14:23;18.23;;;15.13;;
8048;SDS011;20935;42.660;23.342;2022-09-09T05:16:48;18.77;;;15.17;;
8048;SDS011;20935;42.660;23.342;2022-09-09T05:19:14;17.50;;;14.80;;
8048;SDS011;20935;42.660;23.342;2022-09-09T05:21:40;18.37;;;14.33;;
8048;SDS011;20935;42.660;23.342;2022-09-09T05:24:06;17.63;;;13.70;;
8048;SDS011;20935;42.660;23.342;2022-09-09T05:26:32;16.17;;;14.53;;
8048;SDS011;20935;42.660;23.342;2022-09-09T05:28:57;17.33;;;15.07;;
8048;SDS011;20935;42.660;23.342;2022-09-09T05:31:24;17.87;;;15.13;;
8048;SDS011;20935;42.660;23.342;2022-09-09T05:33:53;16.53;;;14.70;;
8048;SDS011;20935;42.660;23.342;2022-09-09T05:36:19;16.93;;;13.63;;
8048;SDS011;20935;42.660;23.342;2022-09-09T05:38:45;14.90;;;13.00;;
8048;SDS011;20935;42.660;23.342;2022-09-09T05:41:11;15.20;;;13.17;;
8048;SDS011;20935;42.660;23.342;2022-09-09T05:43:36;18.07;;;12.90;;
8048;SDS011;20935;42.660;23.342;2022-09-09T05:46:06;16.13;;;12.90;;
8048;SDS011;20935;42.660;23.342;2022-09-09T05:48:33;13.70;;;11.47;;
8048;SDS011;20935;42.660;23.342;2022-09-09T05:50:59;14.03;;;11.93;;
8048;SDS011;20935;42.660;23.342;2022-09-09T05:53:25;15.67;;;11.33;;
8048;SDS011;20935;42.660;23.342;2022-09-09T05:55:57;12.87;;;11.03;;
8048;SDS011;20935;42.660;23.342;2022-09-09T05:58:22;12.47;;;9.80;;
8048;SDS011;20935;42.660;23.342;2022-09-09T06:00:49;14.43;;;10.23;;
8048;SDS011;20935;42.660;23.342;2022-09-09T06:03:15;14.10;;;9.43;;
8048;SDS011;20935;42.660;23.342;2022-09-09T06:05:41;12.63;;;9.77;;
8048;SDS011;20935;42.660;23.342;2022-09-09T06:08:07;11.30;;;9.37;;
8048;SDS011;20935;42.660;23.342;2022-09-09T06:10:32;11.83;;;9.13;;
8048;SDS011;20935;42.660;23.342;2022-09-09T06:12:59;10.90;;;8.93;;
8048;SDS011;20935;42.660;23.342;2022-09-09T06:15:24;14.57;;;9.87;;
8048;SDS011;20935;42.660;23.342;2022-09-09T06:17:54;11.27;;;9.40;;
8048;SDS011;20935;42.660;23.342;2022-09-09T06:20:19;13.43;;;9.37;;
8048;SDS011;20935;42.660;23.342;2022-09-09T06:22:45;9.33;;;8.37;;
8048;SDS011;20935;42.660;23.342;2022-09-09T06:25:11;10.47;;;9.10;;
8048;SDS011;20935;42.660;23.342;2022-09-09T06:27:37;10.77;;;9.30;;
8048;SDS011;20935;42.660;23.342;2022-09-09T06:30:03;10.80;;;8.73;;
8048;SDS011;20935;42.660;23.342;2022-09-09T06:32:28;10.50;;;9.47;;
8048;SDS011;20935;42.660;23.342;2022-09-09T06:34:53;11.47;;;8.77;;
8048;SDS011;20935;42.660;23.342;2022-09-09T06:37:19;11.43;;;9.17;;
8048;SDS011;20935;42.660;23.342;2022-09-09T06:39:45;10.47;;;9.40;;
8048;SDS011;20935;42.660;23.342;2022-09-09T06:42:10;12.13;;;9.50;;
8048;SDS011;20935;42.660;23.342;2022-09-09T06:44:36;11.70;;;9.43;;
8048;SDS011;20935;42.660;23.342;2022-09-09T06:47:01;10.90;;;9.80;;
8048;SDS011;20935;42.660;23.342;2022-09-09T06:49:26;11.20;;;10.13;;
8048;SDS011;20935;42.660;23.342;2022-09-09T06:51:52;12.20;;;9.67;;
8048;SDS011;20935;42.660;23.342;2022-09-09T06:54:17;12.40;;;10.73;;
8048;SDS011;20935;42.660;23.342;2022-09-09T06:56:43;13.87;;;10.03;;
8048;SDS011;20935;42.660;23.342;2022-09-09T06:59:10;11.17;;;9.93;;
8048;SDS011;20935;42.660;23.342;2022-09-09T07:01:37;11.07;;;9.40;;
8048;SDS011;20935;42.660;23.342;2022-09-09T07:04:04;10.33;;;8.97;;
8048;SDS011;20935;42.660;23.342;2022-09-09T07:06:33;11.03;;;8.97;;
8048;SDS011;20935;42.660;23.342;2022-09-09T07:09:03;10.03;;;9.03;;
8048;SDS011;20935;42.660;23.342;2022-09-09T07:11:33;10.17;;;9.17;;
8048;SDS011;20935;42.660;23.342;2022-09-09T07:13:59;18.67;;;9.53;;
8048;SDS011;20935;42.660;23.342;2022-09-09T07:16:25;9.63;;;8.63;;
8048;SDS011;20935;42.660;23.342;2022-09-09T07:18:53;11.60;;;8.43;;
8048;SDS011;20935;42.660;23.342;2022-09-09T07:21:22;12.10;;;9.23;;
8048;SDS011;20935;42.660;23.342;2022-09-09T07:23:47;11.90;;;9.17;;
8048;SDS011;20935;42.660;23.342;2022-09-09T07:26:14;10.43;;;8.83;;
8048;SDS011;20935;42.660;23.342;2022-09-09T07:28:40;10.37;;;9.20;;
8048;SDS011;20935;42.660;23.342;2022-09-09T07:31:06;10.03;;;7.90;;
8048;SDS011;20935;42.660;23.342;2022-09-09T07:33:33;13.00;;;8.43;;
8048;SDS011;20935;42.660;23.342;2022-09-09T07:38:39;11.73;;;8.00;;
8048;SDS011;20935;42.660;23.342;2022-09-09T07:41:08;9.93;;;7.90;;
8048;SDS011;20935;42.660;23.342;2022-09-09T07:43:43;11.03;;;7.67;;
8048;SDS011;20935;42.660;23.342;2022-09-09T07:46:09;8.67;;;7.87;;
8048;SDS011;20935;42.660;23.342;2022-09-09T07:48:35;11.83;;;7.93;;
8048;SDS011;20935;42.660;23.342;2022-09-09T07:53:30;8.03;;;6.97;;
8048;SDS011;20935;42.660;23.342;2022-09-09T07:56:01;10.40;;;7.03;;
8048;SDS011;20935;42.660;23.342;2022-09-09T07:58:26;8.10;;;7.27;;
8048;SDS011;20935;42.660;23.342;2022-09-09T08:00:52;8.50;;;6.97;;
8048;SDS011;20935;42.660;23.342;2022-09-09T08:03:17;8.40;;;7.37;;
8048;SDS011;20935;42.660;23.342;2022-09-09T08:05:42;10.37;;;6.57;;
8048;SDS011;20935;42.660;23.342;2022-09-09T08:08:08;9.80;;;6.23;;
8048;SDS011;20935;42.660;23.342;2022-09-09T08:10:34;7.57;;;6.50;;
8048;SDS011;20935;42.660;23.342;2022-09-09T08:12:59;7.00;;;6.30;;
8048;SDS011;20935;42.660;23.342;2022-09-09T08:15:24;6.53;;;5.80;;
8048;SDS011;20935;42.660;23.342;2022-09-09T08:17:49;6.93;;;6.23;;
8048;SDS011;20935;42.660;23.342;2022-09-09T08:20:15;5.97;;;5.47;;
8048;SDS011;20935;42.660;23.342;2022-09-09T08:22:40;8.70;;;6.07;;
8048;SDS011;20935;42.660;23.342;2022-09-09T08:25:07;9.17;;;6.57;;
8048;SDS011;20935;42.660;23.342;2022-09-09T08:27:33;9.93;;;5.73;;
8048;SDS011;20935;42.660;23.342;2022-09-09T08:29:58;6.57;;;5.97;;
8048;SDS011;20935;42.660;23.342;2022-09-09T08:32:24;8.93;;;6.10;;
8048;SDS011;20935;42.660;23.342;2022-09-09T08:34:49;8.07;;;6.13;;
8048;SDS011;20935;42.660;23.342;2022-09-09T08:37:14;6.67;;;6.07;;
8048;SDS011;20935;42.660;23.342;2022-09-09T08:39:39;6.40;;;5.80;;
8048;SDS011;20935;42.660;23.342;2022-09-09T08:42:25;6.93;;;5.53;;
8048;SDS011;20935;42.660;23.342;2022-09-09T08:50:55;12.40;;;5.83;;
8048;SDS011;20935;42.660;23.342;2022-09-09T08:57:49;11.00;;;6.03;;
8048;SDS011;20935;42.660;23.342;2022-09-09T09:00:17;6.63;;;5.97;;
8048;SDS011;20935;42.660;23.342;2022-09-09T09:05:17;7.87;;;5.97;;
8048;SDS011;20935;42.660;23.342;2022-09-09T09:07:55;6.30;;;5.80;;
8048;SDS011;20935;42.660;23.342;2022-09-09T09:11:04;6.97;;;6.27;;
8048;SDS011;20935;42.660;23.342;2022-09-09T09:13:24;10.03;;;6.73;;
8048;SDS011;20935;42.660;23.342;2022-09-09T09:15:54;10.30;;;5.83;;
8048;SDS011;20935;42.660;23.342;2022-09-09T09:18:21;12.43;;;6.43;;
8048;SDS011;20935;42.660;23.342;2022-09-09T09:23:15;8.80;;;5.93;;
8048;SDS011;20935;42.660;23.342;2022-09-09T09:25:43;10.20;;;6.23;;
8048;SDS011;20935;42.660;23.342;2022-09-09T09:30:41;7.77;;;6.33;;
8048;SDS011;20935;42.660;23.342;2022-09-09T09:33:29;11.10;;;6.57;;
8048;SDS011;20935;42.660;23.342;2022-09-09T09:35:56;10.07;;;6.47;;
8048;SDS011;20935;42.660;23.342;2022-09-09T09:38:22;8.73;;;6.37;;
8048;SDS011;20935;42.660;23.342;2022-09-09T09:40:49;11.07;;;6.67;;
8048;SDS011;20935;42.660;23.342;2022-09-09T09:43:18;7.77;;;6.20;;
8048;SDS011;20935;42.660;23.342;2022-09-09T09:45:45;6.70;;;5.87;;
8048;SDS011;20935;42.660;23.342;2022-09-09T09:48:11;8.03;;;5.93;;
8048;SDS011;20935;42.660;23.342;2022-09-09T09:50:46;8.23;;;6.00;;
8048;SDS011;20935;42.660;23.342;2022-09-09T09:53:22;8.57;;;5.77;;
8048;SDS011;20935;42.660;23.342;2022-09-09T09:55:59;14.97;;;5.73;;
8048;SDS011;20935;42.660;23.342;2022-09-09T09:58:25;8.93;;;6.10;;
8048;SDS011;20935;42.660;23.342;2022-09-09T10:00:52;8.53;;;6.00;;
8048;SDS011;20935;42.660;23.342;2022-09-09T10:03:22;6.77;;;5.63;;
8048;SDS011;20935;42.660;23.342;2022-09-09T10:05:48;11.93;;;6.27;;
8048;SDS011;20935;42.660;23.342;2022-09-09T10:08:14;7.50;;;6.13;;
8048;SDS011;20935;42.660;23.342;2022-09-09T10:24:10;12.70;;;7.23;;
8048;SDS011;20935;42.660;23.342;2022-09-09T10:37:00;7.13;;;6.53;;
8048;SDS011;20935;42.660;23.342;2022-09-09T10:39:32;7.23;;;6.33;;
8048;SDS011;20935;42.660;23.342;2022-09-09T10:42:04;9.67;;;5.80;;
8048;SDS011;20935;42.660;23.342;2022-09-09T10:52:40;7.53;;;6.53;;
8048;SDS011;20935;42.660;23.342;2022-09-09T10:55:19;12.27;;;6.53;;
8048;SDS011;20935;42.660;23.342;2022-09-09T10:57:46;11.07;;;7.30;;
8048;SDS011;20935;42.660;23.342;2022-09-09T11:00:19;10.30;;;6.50;;
8048;SDS011;20935;42.660;23.342;2022-09-09T11:02:47;9.30;;;6.47;;
8048;SDS011;20935;42.660;23.342;2022-09-09T11:05:19;8.20;;;6.87;;
8048;SDS011;20935;42.660;23.342;2022-09-09T11:07:49;9.17;;;6.87;;
8048;SDS011;20935;42.660;23.342;2022-09-09T11:10:25;9.80;;;7.10;;
8048;SDS011;20935;42.660;23.342;2022-09-09T11:12:57;11.83;;;7.43;;
8048;SDS011;20935;42.660;23.342;2022-09-09T11:15:35;8.53;;;7.67;;
8048;SDS011;20935;42.660;23.342;2022-09-09T11:18:02;8.60;;;7.53;;
8048;SDS011;20935;42.660;23.342;2022-09-09T11:20:29;14.07;;;8.63;;
8048;SDS011;20935;42.660;23.342;2022-09-09T11:25:25;10.20;;;7.50;;
8048;SDS011;20935;42.660;23.342;2022-09-09T11:37:51;11.23;;;8.57;;
8048;SDS011;20935;42.660;23.342;2022-09-09T11:40:23;10.60;;;8.33;;
8048;SDS011;20935;42.660;23.342;2022-09-09T11:42:59;10.40;;;8.07;;
8048;SDS011;20935;42.660;23.342;2022-09-09T11:45:26;10.07;;;8.27;;
8048;SDS011;20935;42.660;23.342;2022-09-09T11:47:57;12.93;;;8.73;;
8048;SDS011;20935;42.660;23.342;2022-09-09T11:52:48;15.63;;;8.23;;
8048;SDS011;20935;42.660;23.342;2022-09-09T11:55:27;9.87;;;7.67;;
8048;SDS011;20935;42.660;23.342;2022-09-09T11:58:00;12.07;;;8.67;;
8048;SDS011;20935;42.660;23.342;2022-09-09T12:00:33;9.87;;;7.70;;
8048;SDS011;20935;42.660;23.342;2022-09-09T12:02:59;10.43;;;8.50;;
8048;SDS011;20935;42.660;23.342;2022-09-09T12:05:34;10.57;;;8.20;;
8048;SDS011;20935;42.660;23.342;2022-09-09T12:08:01;11.87;;;8.17;;
8048;SDS011;20935;42.660;23.342;2022-09-09T12:10:35;13.60;;;8.70;;
8048;SDS011;20935;42.660;23.342;2022-09-09T12:15:54;13.90;;;8.70;;
8048;SDS011;20935;42.660;23.342;2022-09-09T12:18:40;12.23;;;9.37;;
8048;SDS011;20935;42.660;23.342;2022-09-09T12:21:29;15.60;;;9.47;;
8048;SDS011;20935;42.660;23.342;2022-09-09T12:24:02;10.63;;;8.57;;
8048;SDS011;20935;42.660;23.342;2022-09-09T12:34:02;13.23;;;8.97;;
8048;SDS011;20935;42.660;23.342;2022-09-09T12:36:28;11.07;;;8.30;;
8048;SDS011;20935;42.660;23.342;2022-09-09T12:38:54;11.10;;;9.10;;
8048;SDS011;20935;42.660;23.342;2022-09-09T12:41:26;15.07;;;8.63;;
8048;SDS011;20935;42.660;23.342;2022-09-09T12:43:51;12.03;;;8.10;;
8048;SDS011;20935;42.660;23.342;2022-09-09T12:48:53;8.73;;;7.93;;
8048;SDS011;20935;42.660;23.342;2022-09-09T12:51:21;17.00;;;8.73;;
8048;SDS011;20935;42.660;23.342;2022-09-09T12:53:49;12.83;;;8.53;;
8048;SDS011;20935;42.660;23.342;2022-09-09T12:56:19;14.07;;;9.40;;
8048;SDS011;20935;42.660;23.342;2022-09-09T12:58:46;11.30;;;8.47;;
8048;SDS011;20935;42.660;23.342;2022-09-09T13:01:18;14.80;;;10.23;;
8048;SDS011;20935;42.660;23.342;2022-09-09T13:03:45;12.63;;;8.43;;
8048;SDS011;20935;42.660;23.342;2022-09-09T13:06:13;13.97;;;8.70;;
8048;SDS011;20935;42.660;23.342;2022-09-09T13:08:39;12.63;;;8.93;;
8048;SDS011;20935;42.660;23.342;2022-09-09T13:11:10;11.93;;;8.67;;
8048;SDS011;20935;42.660;23.342;2022-09-09T13:13:39;9.40;;;8.20;;
8048;SDS011;20935;42.660;23.342;2022-09-09T13:16:06;13.37;;;9.10;;
8048;SDS011;20935;42.660;23.342;2022-09-09T13:18:34;13.47;;;9.00;;
8048;SDS011;20935;42.660;23.342;2022-09-09T13:21:00;10.53;;;8.07;;
8048;SDS011;20935;42.660;23.342;2022-09-09T13:23:27;14.63;;;8.43;;
8048;SDS011;20935;42.660;23.342;2022-09-09T13:25:56;19.67;;;9.50;;
8048;SDS011;20935;42.660;23.342;2022-09-09T13:28:23;15.93;;;9.30;;
8048;SDS011;20935;42.660;23.342;2022-09-09T13:31:03;11.40;;;8.57;;
8048;SDS011;20935;42.660;23.342;2022-09-09T13:33:29;15.30;;;9.20;;
8048;SDS011;20935;42.660;23.342;2022-09-09T13:35:59;12.43;;;8.80;;
8048;SDS011;20935;42.660;23.342;2022-09-09T13:38:25;13.27;;;9.00;;
8048;SDS011;20935;42.660;23.342;2022-09-09T13:40:55;16.67;;;10.17;;
8048;SDS011;20935;42.660;23.342;2022-09-09T13:43:23;15.63;;;8.43;;
8048;SDS011;20935;42.660;23.342;2022-09-09T13:45:53;17.57;;;9.63;;
8048;SDS011;20935;42.660;23.342;2022-09-09T13:48:19;11.63;;;8.83;;
8048;SDS011;20935;42.660;23.342;2022-09-09T13:50:53;14.30;;;9.00;;
8048;SDS011;20935;42.660;23.342;2022-09-09T13:53:19;12.33;;;9.20;;
8048;SDS011;20935;42.660;23.342;2022-09-09T13:55:44;13.87;;;9.73;;
8048;SDS011;20935;42.660;23.342;2022-09-09T13:58:19;20.17;;;9.87;;
8048;SDS011;20935;42.660;23.342;2022-09-09T14:00:46;13.63;;;8.87;;
8048;SDS011;20935;42.660;23.342;2022-09-09T14:03:11;12.40;;;8.53;;
8048;SDS011;20935;42.660;23.342;2022-09-09T14:05:37;11.30;;;8.80;;
8048;SDS011;20935;42.660;23.342;2022-09-09T14:08:03;11.03;;;8.60;;
8048;SDS011;20935;42.660;23.342;2022-09-09T14:10:29;12.97;;;8.57;;
8048;SDS011;20935;42.660;23.342;2022-09-09T14:12:54;10.70;;;8.30;;
8048;SDS011;20935;42.660;23.342;2022-09-09T14:15:21;12.50;;;8.63;;
8048;SDS011;20935;42.660;23.342;2022-09-09T14:17:47;12.93;;;8.07;;
8048;SDS011;20935;42.660;23.342;2022-09-09T14:20:14;14.77;;;9.03;;
8048;SDS011;20935;42.660;23.342;2022-09-09T14:22:40;12.77;;;8.60;;
8048;SDS011;20935;42.660;23.342;2022-09-09T14:25:06;13.43;;;8.30;;
8048;SDS011;20935;42.660;23.342;2022-09-09T14:27:32;16.33;;;8.37;;
8048;SDS011;20935;42.660;23.342;2022-09-09T14:29:58;14.60;;;8.20;;
8048;SDS011;20935;42.660;23.342;2022-09-09T14:32:25;12.67;;;8.40;;
8048;SDS011;20935;42.660;23.342;2022-09-09T14:34:50;15.90;;;8.90;;
8048;SDS011;20935;42.660;23.342;2022-09-09T14:37:17;11.77;;;8.13;;
8048;SDS011;20935;42.660;23.342;2022-09-09T14:39:44;14.03;;;9.10;;
8048;SDS011;20935;42.660;23.342;2022-09-09T14:42:12;11.73;;;8.10;;
8048;SDS011;20935;42.660;23.342;2022-09-09T14:44:37;12.83;;;7.97;;
8048;SDS011;20935;42.660;23.342;2022-09-09T14:47:06;13.80;;;8.63;;
8048;SDS011;20935;42.660;23.342;2022-09-09T14:49:35;12.53;;;8.10;;
8048;SDS011;20935;42.660;23.342;2022-09-09T14:52:01;12.97;;;8.40;;
8048;SDS011;20935;42.660;23.342;2022-09-09T14:54:26;13.30;;;7.97;;
8048;SDS011;20935;42.660;23.342;2022-09-09T14:56:53;13.87;;;8.47;;
8048;SDS011;20935;42.660;23.342;2022-09-09T14:59:18;11.50;;;8.10;;
8048;SDS011;20935;42.660;23.342;2022-09-09T15:01:45;13.50;;;8.40;;
8048;SDS011;20935;42.660;23.342;2022-09-09T15:04:12;12.70;;;7.50;;
8048;SDS011;20935;42.660;23.342;2022-09-09T15:06:41;12.93;;;9.40;;
8048;SDS011;20935;42.660;23.342;2022-09-09T15:09:09;12.33;;;8.37;;
8048;SDS011;20935;42.660;23.342;2022-09-09T15:11:35;10.57;;;9.00;;
8048;SDS011;20935;42.660;23.342;2022-09-09T15:14:07;13.43;;;8.77;;
8048;SDS011;20935;42.660;23.342;2022-09-09T15:16:33;16.83;;;9.03;;
8048;SDS011;20935;42.660;23.342;2022-09-09T15:19:05;14.33;;;8.97;;
8048;SDS011;20935;42.660;23.342;2022-09-09T15:21:31;10.87;;;8.60;;
8048;SDS011;20935;42.660;23.342;2022-09-09T15:23:57;12.07;;;9.03;;
8048;SDS011;20935;42.660;23.342;2022-09-09T15:26:23;10.67;;;8.57;;
8048;SDS011;20935;42.660;23.342;2022-09-09T15:28:48;13.07;;;8.97;;
8048;SDS011;20935;42.660;23.342;2022-09-09T15:31:18;12.60;;;8.57;;
8048;SDS011;20935;42.660;23.342;2022-09-09T15:33:48;16.57;;;8.27;;
8048;SDS011;20935;42.660;23.342;2022-09-09T15:36:14;12.80;;;8.77;;
8048;SDS011;20935;42.660;23.342;2022-09-09T15:38:40;14.73;;;9.23;;
8048;SDS011;20935;42.660;23.342;2022-09-09T15:41:05;11.47;;;8.77;;
8048;SDS011;20935;42.660;23.342;2022-09-09T15:43:31;9.97;;;8.37;;
8048;SDS011;20935;42.660;23.342;2022-09-09T15:45:58;15.37;;;9.40;;
8048;SDS011;20935;42.660;23.342;2022-09-09T15:48:29;12.90;;;9.57;;
8048;SDS011;20935;42.660;23.342;2022-09-09T15:51:02;13.93;;;9.93;;
8048;SDS011;20935;42.660;23.342;2022-09-09T15:53:28;14.43;;;9.27;;
8048;SDS011;20935;42.660;23.342;2022-09-09T15:55:55;13.20;;;10.20;;
8048;SDS011;20935;42.660;23.342;2022-09-09T15:58:20;10.97;;;9.80;;
8048;SDS011;20935;42.660;23.342;2022-09-09T16:00:46;15.53;;;10.33;;
8048;SDS011;20935;42.660;23.342;2022-09-09T16:03:11;12.33;;;8.97;;
8048;SDS011;20935;42.660;23.342;2022-09-09T16:05:37;12.40;;;9.40;;
8048;SDS011;20935;42.660;23.342;2022-09-09T16:08:03;13.97;;;9.43;;
8048;SDS011;20935;42.660;23.342;2022-09-09T16:10:29;14.50;;;10.27;;
8048;SDS011;20935;42.660;23.342;2022-09-09T16:12:55;16.30;;;11.43;;
8048;SDS011;20935;42.660;23.342;2022-09-09T16:15:21;15.20;;;10.47;;
8048;SDS011;20935;42.660;23.342;2022-09-09T16:17:48;12.63;;;10.07;;
8048;SDS011;20935;42.660;23.342;2022-09-09T16:20:13;15.37;;;10.77;;
8048;SDS011;20935;42.660;23.342;2022-09-09T16:22:40;14.83;;;11.00;;
8048;SDS011;20935;42.660;23.342;2022-09-09T16:25:07;13.53;;;10.50;;
8048;SDS011;20935;42.660;23.342;2022-09-09T16:27:33;16.23;;;11.33;;
8048;SDS011;20935;42.660;23.342;2022-09-09T16:29:59;19.17;;;11.33;;
8048;SDS011;20935;42.660;23.342;2022-09-09T16:32:24;18.53;;;10.33;;
8048;SDS011;20935;42.660;23.342;2022-09-09T16:34:49;17.83;;;11.97;;
8048;SDS011;20935;42.660;23.342;2022-09-09T16:37:15;17.97;;;10.50;;
8048;SDS011;20935;42.660;23.342;2022-09-09T16:39:40;13.93;;;10.40;;
8048;SDS011;20935;42.660;23.342;2022-09-09T16:42:05;18.63;;;12.10;;